Terminal Aerodrome Forecast
Issued by NWS

Home | Current Version | Previous Version | Text Only | Print | Product List | Glossary Off
Versions: 1 2 3 4 5 6 7 8 9 10 11 12 13 14 15 16 17 18 19 20

000
FTUS43 KOAX 162300
TAFCDR
TAF
KCDR 162320Z 1700/1724 05013G24KT P6SM SCT050
     FM170200 05007KT P6SM BKN035
     FM170500 18005KT 1SM BR OVC015
     FM171500 20010KT P6SM SCT040
     FM171900 19011G23KT P6SM SCT040=

USA.gov is the U.S. government's official web portal to all federal, state and local government web resources and services.